createdAt,value
2018-04-09T00:00:00.129Z,13.50
2018-04-09T00:02:29.197Z,13.40
2018-04-09T00:04:58.485Z,13.40
2018-04-09T00:07:26.772Z,13.40
2018-04-09T00:09:55.182Z,13.20
2018-04-09T00:12:23.518Z,13.10
2018-04-09T00:14:51.865Z,12.90
2018-04-09T00:17:22.051Z,12.80
2018-04-09T00:19:50.541Z,12.60
2018-04-09T00:22:19.005Z,12.30
2018-04-09T00:24:47.874Z,12.10
2018-04-09T00:27:17.040Z,11.70
2018-04-09T00:29:46.150Z,11.40
2018-04-09T00:32:15.901Z,11.30
2018-04-09T00:34:44.261Z,11.80
2018-04-09T00:37:13.057Z,12.50
2018-04-09T00:39:42.365Z,12.70
2018-04-09T00:42:10.720Z,12.70
2018-04-09T00:44:39.871Z,12.70
2018-04-09T00:47:08.258Z,12.80
2018-04-09T00:49:37.312Z,12.80
2018-04-09T00:52:05.604Z,12.80
2018-04-09T00:54:35.379Z,12.70
2018-04-09T00:57:04.452Z,12.50
2018-04-09T00:59:33.505Z,12.50
2018-04-09T01:02:01.896Z,12.50
2018-04-09T01:04:30.093Z,12.50
2018-04-09T01:06:58.396Z,12.40
2018-04-09T01:09:27.421Z,12.30
2018-04-09T01:11:56.590Z,12.40
2018-04-09T01:14:24.896Z,12.10
2018-04-09T01:16:53.199Z,11.90
2018-04-09T01:19:21.756Z,11.60
2018-04-09T01:21:50.221Z,11.40
2018-04-09T01:24:18.843Z,11.30
2018-04-09T01:26:47.357Z,11.30
2018-04-09T01:29:16.293Z,11.20
2018-04-09T01:31:44.600Z,11.10
2018-04-09T01:34:14.190Z,11.00
2018-04-09T01:36:44.325Z,10.90
2018-04-09T01:39:13.526Z,10.90
2018-04-09T01:41:43.091Z,11.00
2018-04-09T01:44:12.508Z,10.90
2018-04-09T01:46:41.759Z,10.90
2018-04-09T01:49:10.352Z,10.60
2018-04-09T01:51:39.141Z,10.50
2018-04-09T01:54:07.454Z,10.50
2018-04-09T01:56:36.397Z,10.50
2018-04-09T01:59:04.696Z,10.50
2018-04-09T02:01:34.620Z,10.70
2018-04-09T02:04:05.224Z,10.70
2018-04-09T02:06:35.262Z,10.50
2018-04-09T02:09:05.164Z,10.40
2018-04-09T02:11:35.049Z,10.30
2018-04-09T02:14:05.745Z,10.00
2018-04-09T02:16:35.700Z,9.90
2018-04-09T02:19:06.447Z,9.80
2018-04-09T02:21:36.530Z,9.90
2018-04-09T02:24:06.266Z,9.90
2018-04-09T02:26:36.177Z,9.90
2018-04-09T02:29:06.298Z,9.90
2018-04-09T02:31:35.329Z,9.90
2018-04-09T02:34:04.701Z,9.90
2018-04-09T02:36:34.562Z,10.30
2018-04-09T02:39:05.343Z,10.40
2018-04-09T02:41:35.266Z,10.40
2018-04-09T02:44:04.987Z,10.20
2018-04-09T02:46:34.707Z,10.00
2018-04-09T02:49:03.340Z,9.90
2018-04-09T02:51:31.637Z,9.80
2018-04-09T02:53:59.980Z,9.60
2018-04-09T02:56:29.066Z,9.60
2018-04-09T02:58:57.390Z,9.50
2018-04-09T03:01:26.315Z,9.60
2018-04-09T03:03:54.617Z,9.70
2018-04-09T03:06:23.009Z,9.70
2018-04-09T03:08:52.993Z,9.80
2018-04-09T03:11:21.281Z,9.70
2018-04-09T03:13:50.766Z,9.50
2018-04-09T03:16:19.318Z,9.60
2018-04-09T03:18:47.623Z,9.70
2018-04-09T03:21:16.026Z,9.90
2018-04-09T03:23:44.567Z,9.90
2018-04-09T03:26:13.290Z,9.80
2018-04-09T03:28:41.617Z,9.70
2018-04-09T03:31:10.581Z,9.70
2018-04-09T03:33:39.689Z,9.60
2018-04-09T03:36:08.047Z,9.70
2018-04-09T03:38:36.508Z,9.80
2018-04-09T03:41:05.205Z,9.90
2018-04-09T03:43:33.521Z,9.80
2018-04-09T03:46:02.266Z,9.80
2018-04-09T03:48:30.557Z,9.60
2018-04-09T03:50:59.291Z,9.60
2018-04-09T03:53:27.589Z,9.60
2018-04-09T03:55:55.866Z,9.30
2018-04-09T03:58:24.299Z,9.20
2018-04-09T04:00:53.181Z,9.00
2018-04-09T04:03:21.467Z,9.00
2018-04-09T04:05:49.912Z,9.00
2018-04-09T04:08:18.205Z,9.10
2018-04-09T04:10:46.700Z,9.30
2018-04-09T04:13:18.516Z,9.40
2018-04-09T04:16:05.212Z,9.30
2018-04-09T04:18:59.517Z,9.30
2018-04-09T04:21:46.268Z,9.30
2018-04-09T04:24:15.804Z,9.40
2018-04-09T04:26:44.324Z,9.40
2018-04-09T04:29:13.037Z,9.50
2018-04-09T04:31:41.410Z,9.30
2018-04-09T04:34:09.768Z,9.10
2018-04-09T04:36:38.056Z,8.90
2018-04-09T04:39:07.172Z,8.90
2018-04-09T04:41:36.176Z,8.80
2018-04-09T04:44:05.216Z,9.10
2018-04-09T04:46:34.253Z,9.10
2018-04-09T04:49:02.536Z,9.40
2018-04-09T04:51:31.789Z,9.50
2018-04-09T04:54:00.888Z,9.40
2018-04-09T04:56:29.856Z,9.20
2018-04-09T04:58:59.069Z,9.20
2018-04-09T05:01:28.062Z,9.20
2018-04-09T05:03:56.384Z,9.10
2018-04-09T05:06:25.373Z,9.20
2018-04-09T05:08:53.752Z,9.30
2018-04-09T05:11:22.912Z,9.40
2018-04-09T05:13:51.848Z,9.40
2018-04-09T05:16:20.208Z,9.50
2018-04-09T05:18:49.385Z,9.40
2018-04-09T05:21:18.322Z,9.50
2018-04-09T05:23:50.601Z,9.70
2018-04-09T05:26:19.953Z,9.70
2018-04-09T05:28:48.878Z,9.70
2018-04-09T05:31:17.223Z,9.70
2018-04-09T05:33:45.521Z,9.80
2018-04-09T05:36:14.692Z,10.20
2018-04-09T05:38:43.629Z,10.30
2018-04-09T05:41:11.948Z,10.30
2018-04-09T05:43:40.268Z,10.20
2018-04-09T05:46:11.005Z,10.00
2018-04-09T05:48:40.844Z,10.00
2018-04-09T05:51:09.195Z,10.00
2018-04-09T05:53:37.548Z,10.10
2018-04-09T05:56:07.325Z,10.20
2018-04-09T05:58:35.634Z,10.30
2018-04-09T06:01:04.736Z,10.30
2018-04-09T06:03:33.777Z,10.40
2018-04-09T06:06:02.857Z,10.40
2018-04-09T06:08:31.201Z,10.60
2018-04-09T06:11:00.281Z,10.80
2018-04-09T06:13:28.585Z,11.10
2018-04-09T06:15:57.464Z,11.40
2018-04-09T06:18:26.005Z,11.60
2018-04-09T06:20:54.432Z,11.80
2018-04-09T06:23:24.072Z,12.00
2018-04-09T06:25:52.449Z,11.80
2018-04-09T06:28:21.492Z,12.00
2018-04-09T06:30:50.706Z,11.90
2018-04-09T06:33:19.804Z,12.00
2018-04-09T06:35:48.913Z,12.40
2018-04-09T06:38:17.677Z,12.70
2018-04-09T06:40:46.104Z,12.80
2018-04-09T06:43:15.089Z,13.10
2018-04-09T06:45:43.556Z,13.20
2018-04-09T06:48:12.785Z,13.10
2018-04-09T06:50:41.656Z,12.70
2018-04-09T06:53:09.948Z,12.60
2018-04-09T06:55:39.140Z,12.80
2018-04-09T06:58:08.180Z,13.00
2018-04-09T07:00:37.009Z,12.90
2018-04-09T07:03:06.501Z,12.60
2018-04-09T07:05:35.428Z,12.60
2018-04-09T07:08:03.717Z,13.20
2018-04-09T07:10:32.145Z,13.70
2018-04-09T07:13:00.461Z,14.00
2018-04-09T07:15:28.770Z,14.10
2018-04-09T07:17:58.001Z,14.70
2018-04-09T07:20:27.002Z,15.30
2018-04-09T07:22:55.308Z,15.80
2018-04-09T07:25:24.441Z,15.50
2018-04-09T07:27:54.097Z,15.40
2018-04-09T07:30:23.677Z,15.40
2018-04-09T07:32:52.568Z,15.30
2018-04-09T07:35:22.440Z,15.50
2018-04-09T07:37:52.669Z,15.50
2018-04-09T07:40:21.386Z,15.50
2018-04-09T07:42:50.673Z,15.60
2018-04-09T07:45:19.088Z,15.70
2018-04-09T07:47:48.827Z,15.40
2018-04-09T07:50:17.345Z,15.70
2018-04-09T07:52:45.785Z,15.90
2018-04-09T07:55:14.836Z,16.00
2018-04-09T07:57:44.041Z,16.40
2018-04-09T08:00:12.952Z,16.70
2018-04-09T08:02:41.947Z,16.90
2018-04-09T08:05:11.125Z,17.10
2018-04-09T08:07:40.161Z,17.30
2018-04-09T08:10:08.544Z,17.10
2018-04-09T08:12:37.424Z,16.80
2018-04-09T08:15:06.772Z,17.30
2018-04-09T08:17:36.642Z,18.40
2018-04-09T08:20:05.356Z,19.40
2018-04-09T08:22:34.077Z,19.80
2018-04-09T08:25:03.190Z,19.60
2018-04-09T08:27:32.268Z,19.80
2018-04-09T08:30:02.140Z,20.10
2018-04-09T08:32:31.220Z,20.30
2018-04-09T08:35:00.281Z,21.50
2018-04-09T08:37:29.505Z,21.30
2018-04-09T08:39:58.866Z,21.30
2018-04-09T08:42:27.500Z,20.90
2018-04-09T08:44:57.272Z,21.30
2018-04-09T08:47:27.336Z,21.60
2018-04-09T08:49:55.693Z,21.50
2018-04-09T08:52:24.869Z,21.60
2018-04-09T08:54:53.964Z,20.90
2018-04-09T08:57:22.892Z,20.90
2018-04-09T08:59:51.206Z,20.40
2018-04-09T09:02:20.478Z,20.10
2018-04-09T09:04:49.528Z,20.10
2018-04-09T09:07:18.032Z,20.60
2018-04-09T09:09:47.720Z,20.80
2018-04-09T09:12:16.654Z,21.00
2018-04-09T09:14:44.970Z,20.80
2018-04-09T09:17:14.916Z,20.90
2018-04-09T09:19:44.109Z,21.20
2018-04-09T09:22:12.400Z,21.70
2018-04-09T09:24:46.412Z,23.00
2018-04-09T09:27:15.320Z,22.60
2018-04-09T09:29:43.607Z,23.00
2018-04-09T09:32:12.034Z,23.30
2018-04-09T09:34:40.341Z,23.00
2018-04-09T09:37:09.247Z,24.00
2018-04-09T09:39:38.429Z,25.20
2018-04-09T09:42:09.156Z,27.20
2018-04-09T09:44:38.224Z,28.40
2018-04-09T09:47:06.528Z,27.80
2018-04-09T09:49:34.825Z,28.20
2018-04-09T09:52:03.988Z,27.70
2018-04-09T09:54:32.817Z,26.10
2018-04-09T09:57:01.264Z,25.00
2018-04-09T09:59:30.288Z,24.20
2018-04-09T10:01:58.632Z,24.00
2018-04-09T10:04:27.044Z,23.70
2018-04-09T10:06:56.080Z,24.10
2018-04-09T10:09:25.129Z,23.50
2018-04-09T10:11:54.132Z,23.10
2018-04-09T10:14:22.451Z,22.40
2018-04-09T10:16:54.034Z,22.50
2018-04-09T10:19:23.033Z,22.50
2018-04-09T10:21:51.354Z,23.60
2018-04-09T10:24:19.796Z,24.70
2018-04-09T10:26:48.677Z,25.60
2018-04-09T10:29:18.001Z,26.30
2018-04-09T10:31:46.448Z,26.20
2018-04-09T10:34:16.046Z,26.50
2018-04-09T10:36:44.679Z,26.90
2018-04-09T10:39:13.826Z,26.80
2018-04-09T10:41:42.126Z,26.30
2018-04-09T10:44:12.013Z,25.90
2018-04-09T10:46:40.448Z,25.10
2018-04-09T10:49:09.415Z,24.80
2018-04-09T10:51:38.040Z,24.20
2018-04-09T10:54:06.871Z,24.40
2018-04-09T10:56:35.981Z,24.60
2018-04-09T10:59:05.885Z,24.70
2018-04-09T11:01:35.693Z,25.10
2018-04-09T11:04:04.783Z,25.30
2018-04-09T11:06:33.042Z,26.30
2018-04-09T11:09:02.113Z,27.40
2018-04-09T11:11:30.436Z,27.20
2018-04-09T11:13:59.116Z,27.20
2018-04-09T11:16:27.912Z,27.80
2018-04-09T11:18:56.221Z,27.80
2018-04-09T11:21:25.969Z,27.50
2018-04-09T11:23:54.436Z,27.70
2018-04-09T11:26:23.331Z,28.10
2018-04-09T11:28:51.760Z,28.20
2018-04-09T11:31:21.566Z,27.90
2018-04-09T11:33:50.053Z,28.20
2018-04-09T11:36:18.681Z,28.00
2018-04-09T11:38:47.027Z,28.20
2018-04-09T11:41:15.606Z,29.40
2018-04-09T11:43:44.194Z,29.60
2018-04-09T11:46:13.019Z,29.60
2018-04-09T11:48:41.988Z,29.50
2018-04-09T11:51:11.079Z,29.20
2018-04-09T11:53:39.503Z,26.90
2018-04-09T11:56:08.396Z,27.50
2018-04-09T11:58:36.695Z,28.00
2018-04-09T12:01:05.121Z,28.30
2018-04-09T12:03:34.044Z,28.70
2018-04-09T12:06:03.135Z,29.20
2018-04-09T12:08:32.275Z,26.20
2018-04-09T12:11:01.175Z,27.40
2018-04-09T12:13:29.687Z,28.40
2018-04-09T12:15:59.299Z,28.80
2018-04-09T12:18:27.943Z,30.60
2018-04-09T12:20:56.413Z,30.90
2018-04-09T12:23:24.710Z,30.70
2018-04-09T12:25:53.187Z,30.60
2018-04-09T12:28:22.134Z,30.70
2018-04-09T12:30:50.965Z,30.20
2018-04-09T12:33:19.974Z,29.00
2018-04-09T12:35:48.715Z,28.00
2018-04-09T12:38:18.098Z,26.80
2018-04-09T12:40:46.543Z,26.70
2018-04-09T12:43:14.843Z,26.10
2018-04-09T12:45:43.736Z,25.20
2018-04-09T12:48:12.139Z,25.70
2018-04-09T12:50:41.270Z,26.20
2018-04-09T12:53:09.671Z,27.00
2018-04-09T12:55:38.518Z,27.00
2018-04-09T12:58:06.837Z,27.30
2018-04-09T13:00:35.517Z,27.10
2018-04-09T13:03:05.118Z,27.60
2018-04-09T13:05:36.539Z,28.00
2018-04-09T13:08:04.846Z,28.20
2018-04-09T13:10:34.629Z,28.00
2018-04-09T13:13:02.966Z,28.00
2018-04-09T13:15:31.330Z,27.80
2018-04-09T13:18:00.543Z,27.50
2018-04-09T13:20:29.569Z,27.40
2018-04-09T13:22:58.608Z,27.00
2018-04-09T13:25:26.897Z,26.30
2018-04-09T13:27:55.877Z,25.30
2018-04-09T13:30:24.224Z,24.70
2018-04-09T13:32:53.282Z,24.80
2018-04-09T13:35:21.568Z,25.10
2018-04-09T13:37:49.898Z,25.20
2018-04-09T13:40:19.422Z,25.20
2018-04-09T13:42:48.058Z,25.30
2018-04-09T13:45:17.643Z,25.80
2018-04-09T13:47:47.179Z,25.50
2018-04-09T13:50:16.969Z,25.50
2018-04-09T13:52:46.159Z,24.90
2018-04-09T13:55:15.126Z,25.80
2018-04-09T13:57:45.317Z,25.40
2018-04-09T14:00:14.350Z,25.10
2018-04-09T14:02:42.954Z,25.90
2018-04-09T14:05:11.681Z,25.90
2018-04-09T14:07:40.619Z,25.60
2018-04-09T14:10:09.042Z,25.50
2018-04-09T14:12:37.891Z,25.50
2018-04-09T14:15:06.276Z,26.10
2018-04-09T14:17:35.350Z,26.00
2018-04-09T14:20:03.696Z,25.70
2018-04-09T14:22:31.995Z,25.50
2018-04-09T14:25:00.999Z,25.80
2018-04-09T14:27:29.371Z,24.90
2018-04-09T14:29:57.773Z,24.30
2018-04-09T14:32:26.832Z,24.10
2018-04-09T14:34:55.854Z,24.20
2018-04-09T14:37:24.850Z,24.30
2018-04-09T14:39:54.118Z,24.80
2018-04-09T14:42:22.406Z,25.40
2018-04-09T14:44:50.827Z,24.80
2018-04-09T14:47:20.458Z,24.80
2018-04-09T14:49:49.511Z,25.10
2018-04-09T14:52:17.827Z,25.80
2018-04-09T14:54:47.944Z,24.80
2018-04-09T14:57:16.491Z,24.70
2018-04-09T14:59:46.102Z,24.70
2018-04-09T15:02:15.154Z,24.70
2018-04-09T15:04:44.948Z,24.30
2018-04-09T15:07:13.371Z,23.80
2018-04-09T15:09:42.369Z,23.40
2018-04-09T15:12:14.278Z,23.30
2018-04-09T15:17:22.879Z,23.00
2018-04-09T15:19:51.934Z,23.10
2018-04-09T15:22:21.874Z,23.30
2018-04-09T15:24:51.016Z,23.70
2018-04-09T15:27:20.710Z,23.80
2018-04-09T15:29:49.134Z,23.60
2018-04-09T15:32:18.245Z,24.00
2018-04-09T15:34:46.551Z,23.70
2018-04-09T15:37:15.441Z,23.50
2018-04-09T15:39:44.706Z,23.70
2018-04-09T15:42:13.703Z,23.60
2018-04-09T15:44:42.027Z,23.60
2018-04-09T15:47:10.870Z,23.00
2018-04-09T15:49:40.226Z,22.80
2018-04-09T15:52:12.634Z,22.80
2018-04-09T15:54:41.504Z,22.70
2018-04-09T15:57:09.847Z,22.60
2018-04-09T15:59:38.202Z,22.60
2018-04-09T16:02:07.787Z,22.50
2018-04-09T16:04:36.335Z,22.40
2018-04-09T16:07:04.703Z,22.30
2018-04-09T16:09:33.690Z,22.10
2018-04-09T16:12:01.985Z,21.90
2018-04-09T16:14:31.271Z,21.70
2018-04-09T16:17:00.150Z,21.50
2018-04-09T16:19:31.062Z,21.40
2018-04-09T16:22:00.571Z,21.30
2018-04-09T16:24:30.694Z,21.20
2018-04-09T16:26:59.437Z,21.10
2018-04-09T16:29:27.922Z,20.90
2018-04-09T16:31:56.774Z,20.90
2018-04-09T16:34:25.463Z,20.80
2018-04-09T16:36:54.726Z,20.70
2018-04-09T16:39:23.815Z,20.60
2018-04-09T16:41:55.800Z,20.50
2018-04-09T16:44:24.918Z,20.20
2018-04-09T16:46:53.794Z,20.20
2018-04-09T16:49:24.185Z,20.20
2018-04-09T16:51:52.482Z,20.10
2018-04-09T16:54:21.718Z,20.00
2018-04-09T16:56:50.250Z,19.90
2018-04-09T16:59:18.928Z,19.90
2018-04-09T17:01:47.219Z,19.80
2018-04-09T17:04:16.414Z,19.70
2018-04-09T17:06:45.567Z,19.70
2018-04-09T17:09:13.857Z,19.50
2018-04-09T17:11:42.761Z,19.50
2018-04-09T17:14:11.159Z,19.40
2018-04-09T17:16:42.187Z,19.40
2018-04-09T17:19:10.520Z,19.30
2018-04-09T17:21:39.931Z,19.20
2018-04-09T17:24:08.610Z,19.20
2018-04-09T17:26:37.294Z,19.20
2018-04-09T17:29:05.635Z,19.10
2018-04-09T17:31:33.914Z,19.10
2018-04-09T17:34:03.146Z,19.00
2018-04-09T17:36:32.140Z,18.90
2018-04-09T17:39:01.447Z,18.80
2018-04-09T17:41:31.130Z,18.70
2018-04-09T17:44:00.363Z,18.70
2018-04-09T17:46:29.460Z,18.50
2018-04-09T17:48:57.761Z,18.50
2018-04-09T17:51:26.163Z,18.60
2018-04-09T17:53:55.118Z,18.60
2018-04-09T17:56:23.415Z,18.50
2018-04-09T17:58:51.770Z,18.40
2018-04-09T18:01:20.154Z,18.20
2018-04-09T18:03:48.691Z,18.00
2018-04-09T18:06:17.146Z,17.80
2018-04-09T18:08:46.403Z,17.80
2018-04-09T18:11:15.148Z,17.60
2018-04-09T18:13:43.466Z,17.50
2018-04-09T18:16:12.814Z,17.40
2018-04-09T18:18:42.102Z,17.40
2018-04-09T18:21:11.060Z,17.20
2018-04-09T18:23:39.361Z,17.00
2018-04-09T18:26:09.119Z,16.90
2018-04-09T18:28:38.346Z,16.90
2018-04-09T18:31:08.418Z,16.90
2018-04-09T18:33:36.894Z,16.90
2018-04-09T18:36:05.643Z,17.00
2018-04-09T18:38:34.310Z,16.80
2018-04-09T18:41:03.495Z,16.80
2018-04-09T18:43:32.584Z,16.60
2018-04-09T18:46:01.127Z,16.50
2018-04-09T18:48:29.720Z,16.60
2018-04-09T18:50:58.158Z,16.50
2018-04-09T18:53:26.530Z,16.30
2018-04-09T18:55:54.983Z,16.20
2018-04-09T18:58:23.882Z,16.10
2018-04-09T19:00:52.302Z,16.00
2018-04-09T19:03:22.132Z,16.10
2018-04-09T19:05:51.816Z,16.10
2018-04-09T19:08:20.228Z,16.20
2018-04-09T19:10:48.590Z,16.10
2018-04-09T19:13:17.445Z,15.90
2018-04-09T19:15:45.987Z,15.70
2018-04-09T19:18:14.279Z,15.50
2018-04-09T19:20:44.842Z,15.40
2018-04-09T19:23:13.251Z,15.40
2018-04-09T19:25:42.251Z,15.50
2018-04-09T19:28:10.542Z,15.70
2018-04-09T19:30:39.372Z,15.80
2018-04-09T19:33:08.684Z,16.10
2018-04-09T19:35:42.667Z,16.30
2018-04-09T19:38:16.575Z,16.30
2018-04-09T19:40:50.907Z,16.40
2018-04-09T19:43:19.439Z,16.30
2018-04-09T19:45:48.106Z,16.30
2018-04-09T19:48:16.450Z,16.20
2018-04-09T19:50:44.767Z,16.00
2018-04-09T19:53:13.868Z,15.80
2018-04-09T19:55:42.730Z,15.70
2018-04-09T19:58:11.027Z,15.50
2018-04-09T20:00:39.583Z,15.60
2018-04-09T20:03:08.511Z,15.60
2018-04-09T20:05:36.823Z,15.60
2018-04-09T20:08:05.303Z,15.70
2018-04-09T20:10:33.510Z,15.70
2018-04-09T20:13:01.893Z,15.60
2018-04-09T20:15:31.107Z,15.50
2018-04-09T20:17:59.828Z,15.50
2018-04-09T20:20:28.134Z,15.60
2018-04-09T20:22:57.250Z,15.60
2018-04-09T20:25:25.610Z,15.60
2018-04-09T20:27:54.360Z,15.50
2018-04-09T20:30:22.871Z,15.40
2018-04-09T20:32:51.165Z,15.50
2018-04-09T20:35:20.347Z,15.40
2018-04-09T20:37:52.438Z,15.40
2018-04-09T20:40:21.654Z,15.40
2018-04-09T20:42:51.566Z,15.30
2018-04-09T20:45:20.006Z,15.20
2018-04-09T20:47:48.946Z,15.00
2018-04-09T20:50:18.183Z,14.90
2018-04-09T20:52:46.239Z,14.80
2018-04-09T20:55:14.623Z,14.70
2018-04-09T20:57:43.002Z,14.70
2018-04-09T21:00:12.132Z,14.60
2018-04-09T21:02:41.910Z,14.60
2018-04-09T21:05:11.134Z,14.50
2018-04-09T21:07:40.979Z,14.30
2018-04-09T21:10:11.466Z,14.20
2018-04-09T21:12:42.230Z,14.20
2018-04-09T21:15:11.606Z,14.20
2018-04-09T21:17:40.423Z,14.20
2018-04-09T21:20:08.714Z,14.20
2018-04-09T21:22:37.267Z,14.10
2018-04-09T21:25:09.574Z,14.10
2018-04-09T21:27:38.583Z,14.10
2018-04-09T21:30:07.014Z,14.10
2018-04-09T21:32:35.339Z,14.00
2018-04-09T21:35:07.264Z,14.00
2018-04-09T21:37:37.411Z,14.00
2018-04-09T21:40:05.771Z,14.00
2018-04-09T21:42:34.861Z,14.00
2018-04-09T21:45:03.908Z,14.00
2018-04-09T21:47:33.199Z,14.00
2018-04-09T21:50:03.085Z,13.90
2018-04-09T21:52:33.807Z,13.80
2018-04-09T21:55:02.667Z,13.90
2018-04-09T21:57:31.693Z,13.90
2018-04-09T22:00:00.486Z,13.90
2018-04-09T22:02:29.393Z,13.90
2018-04-09T22:04:57.695Z,14.00
2018-04-09T22:07:26.046Z,14.00
2018-04-09T22:09:55.031Z,13.90
2018-04-09T22:12:24.030Z,13.80
2018-04-09T22:14:52.510Z,13.60
2018-04-09T22:17:21.516Z,13.50
2018-04-09T22:19:50.262Z,13.60
2018-04-09T22:22:19.250Z,13.60
2018-04-09T22:24:48.123Z,13.50
2018-04-09T22:27:16.454Z,13.50
2018-04-09T22:29:45.574Z,13.50
2018-04-09T22:32:13.882Z,13.40
2018-04-09T22:34:43.862Z,13.40
2018-04-09T22:37:12.843Z,13.30
2018-04-09T22:39:41.151Z,13.40
2018-04-09T22:42:09.972Z,13.40
2018-04-09T22:44:40.295Z,13.60
2018-04-09T22:47:09.279Z,13.60
2018-04-09T22:49:37.984Z,13.60
2018-04-09T22:52:10.116Z,13.60
2018-04-09T22:54:38.595Z,13.60
2018-04-09T22:57:09.055Z,13.50
2018-04-09T23:02:23.356Z,13.50
2018-04-09T23:04:53.580Z,13.50
2018-04-09T23:07:22.501Z,13.50
2018-04-09T23:09:51.577Z,13.50
2018-04-09T23:12:20.013Z,13.50
2018-04-09T23:14:49.911Z,13.40
2018-04-09T23:17:19.959Z,13.40
2018-04-09T23:19:49.159Z,13.50
2018-04-09T23:22:36.099Z,13.60
2018-04-09T23:25:05.280Z,13.50
2018-04-09T23:27:34.301Z,13.20
2018-04-09T23:30:02.955Z,13.10
2018-04-09T23:32:31.600Z,13.10
2018-04-09T23:35:00.763Z,13.10
2018-04-09T23:37:29.072Z,13.10
2018-04-09T23:39:58.341Z,13.10
2018-04-09T23:42:26.627Z,13.10
2018-04-09T23:44:55.511Z,13.10
2018-04-09T23:47:23.898Z,13.10
2018-04-09T23:49:52.190Z,13.10
2018-04-09T23:52:21.178Z,13.00
2018-04-09T23:54:49.547Z,13.00
2018-04-09T23:57:18.250Z,13.00
2018-04-09T23:59:46.542Z,13.00
